Time;durP1;ratioP1;P1;durP2;ratioP2;P2;SDS_P1;SDS_P2;PMS_P1;PMS_P2;Temp;Humidity;BMP_temperature;BMP_pressure;BME280_temperature;BME280_humidity;BME280_pressure;Samples;Min_cycle;Max_cycle;Signal;HPM_P1;HPM_P2
2023/03/28 00:01:02;;;;;;;3.03;1.60;;;;;;;;;;5034184;28;20627;-58
2023/03/28 00:03:34;;;;;;;6.60;1.97;;;;;;;;;;5033955;28;20267;-58
2023/03/28 00:06:08;;;;;;;4.50;1.90;;;;;;;;;;5033850;28;20582;-59
2023/03/28 00:08:38;;;;;;;3.20;1.73;;;;;;;;;;5033760;28;20200;-58
2023/03/28 00:11:18;;;;;;;4.30;1.67;;;;;;;;;;5033734;28;20188;-58
2023/03/28 00:13:56;;;;;;;4.20;1.90;;;;;;;;;;5033748;28;20295;-58
2023/03/28 00:16:26;;;;;;;1.70;1.50;;;;;;;;;;5033452;28;20286;-58
2023/03/28 00:18:53;;;;;;;4.03;1.70;;;;;;;;;;5033796;28;20216;-58
2023/03/28 00:21:23;;;;;;;6.67;1.60;;;;;;;;;;5033831;28;20215;-58
2023/03/28 00:23:55;;;;;;;1.50;1.37;;;;;;;;;;5033672;28;20315;-58
2023/03/28 00:26:23;;;;;;;5.00;1.90;;;;;;;;;;5033592;28;20209;-58
2023/03/28 00:28:51;;;;;;;4.73;1.70;;;;;;;;;;5033647;28;20220;-58
2023/03/28 00:31:18;;;;;;;2.77;1.60;;;;;;;;;;5015882;28;20216;-58
2023/03/28 00:33:48;;;;;;;3.57;1.80;;;;;;;;;;5033402;28;20673;-58
2023/03/28 00:36:21;;;;;;;3.57;1.53;;;;;;;;;;5033967;28;20576;-59
2023/03/28 00:38:49;;;;;;;3.33;1.50;;;;;;;;;;5015991;28;20645;-59
2023/03/28 00:41:17;;;;;;;4.67;1.93;;;;;;;;;;5033532;28;20223;-59
2023/03/28 00:43:46;;;;;;;2.03;1.60;;;;;;;;;;5015496;28;20224;-57
2023/03/28 00:46:35;;;;;;;2.10;1.77;;;;;;;;;;5033129;28;20208;-58
2023/03/28 00:49:11;;;;;;;4.60;1.73;;;;;;;;;;5016255;28;20205;-58
2023/03/28 00:51:44;;;;;;;2.37;1.53;;;;;;;;;;5016238;28;20211;-58
2023/03/28 00:54:14;;;;;;;1.73;1.40;;;;;;;;;;5015921;28;20188;-58
2023/03/28 00:56:44;;;;;;;3.67;1.80;;;;;;;;;;5016138;28;20204;-58
2023/03/28 00:59:15;;;;;;;3.13;1.90;;;;;;;;;;5017528;28;20255;-58
2023/03/28 01:01:43;;;;;;;2.73;1.73;;;;;;;;;;5020075;28;20204;-56
2023/03/28 01:04:11;;;;;;;3.50;1.87;;;;;;;;;;5019850;28;20235;-58
2023/03/28 01:06:46;;;;;;;3.30;1.90;;;;;;;;;;5019647;28;20212;-58
2023/03/28 01:09:18;;;;;;;2.40;1.67;;;;;;;;;;5019796;28;20204;-58
2023/03/28 01:11:49;;;;;;;4.17;1.57;;;;;;;;;;5019426;28;20211;-58
2023/03/28 01:14:18;;;;;;;3.07;1.70;;;;;;;;;;5019797;28;20213;-58
2023/03/28 01:16:48;;;;;;;2.47;1.87;;;;;;;;;;5018464;28;20262;-58
2023/03/28 01:19:31;;;;;;;2.33;1.70;;;;;;;;;;5018036;28;20196;-58
2023/03/28 01:22:29;;;;;;;4.70;1.70;;;;;;;;;;5018462;28;20204;-58
2023/03/28 01:25:00;;;;;;;2.37;1.60;;;;;;;;;;5034513;28;20275;-58
2023/03/28 01:27:33;;;;;;;2.43;1.47;;;;;;;;;;5034254;28;20209;-58
2023/03/28 01:30:07;;;;;;;2.27;1.40;;;;;;;;;;5018112;28;20197;-58
2023/03/28 01:33:22;;;;;;;2.20;1.70;;;;;;;;;;5034759;28;20200;-58
2023/03/28 01:35:59;;;;;;;2.90;1.50;;;;;;;;;;5034170;28;20205;-58
2023/03/28 01:38:46;;;;;;;3.13;1.37;;;;;;;;;;5035717;28;20185;-58
2023/03/28 01:41:18;;;;;;;2.97;1.50;;;;;;;;;;5017765;28;20712;-58
2023/03/28 01:43:57;;;;;;;4.07;1.60;;;;;;;;;;5017883;28;20213;-58
2023/03/28 01:46:29;;;;;;;2.33;1.43;;;;;;;;;;5034304;28;20196;-58
2023/03/28 01:49:06;;;;;;;2.13;1.43;;;;;;;;;;5017599;28;20205;-58
2023/03/28 01:52:11;;;;;;;2.10;1.40;;;;;;;;;;5034470;28;20596;-58
2023/03/28 01:54:56;;;;;;;2.67;1.87;;;;;;;;;;5035096;28;20555;-57
2023/03/28 01:57:47;;;;;;;1.73;1.50;;;;;;;;;;5017428;28;20232;-58
2023/03/28 02:00:28;;;;;;;3.97;1.93;;;;;;;;;;5017417;28;20610;-58
2023/03/28 02:03:13;;;;;;;2.27;1.50;;;;;;;;;;5019492;28;20282;-59
2023/03/28 02:05:49;;;;;;;4.77;1.40;;;;;;;;;;5017679;28;20196;-59
2023/03/28 02:08:17;;;;;;;3.77;1.83;;;;;;;;;;5017351;28;20708;-58
2023/03/28 02:10:52;;;;;;;1.90;1.20;;;;;;;;;;5001517;28;20204;-58
2023/03/28 02:13:45;;;;;;;1.83;1.50;;;;;;;;;;5020314;28;20215;-59
2023/03/28 02:16:32;;;;;;;6.30;1.57;;;;;;;;;;4991869;28;1264383;-58
2023/03/28 02:19:08;;;;;;;1.93;1.40;;;;;;;;;;5003182;28;20211;-58
2023/03/28 02:21:52;;;;;;;3.23;1.80;;;;;;;;;;5034828;28;20255;-58
2023/03/28 02:24:50;;;;;;;6.33;1.70;;;;;;;;;;4999293;28;20725;-58
2023/03/28 02:27:51;;;;;;;1.70;1.30;;;;;;;;;;5018454;28;20530;-56
2023/03/28 02:30:24;;;;;;;1.93;1.30;;;;;;;;;;5035682;28;20212;-59
2023/03/28 02:32:59;;;;;;;4.30;1.57;;;;;;;;;;5018112;28;20304;-58
2023/03/28 02:35:44;;;;;;;3.50;1.70;;;;;;;;;;5018297;28;20215;-59
2023/03/28 02:38:41;;;;;;;4.43;1.60;;;;;;;;;;5035659;28;20204;-58
2023/03/28 02:41:30;;;;;;;1.40;1.20;;;;;;;;;;4974472;28;20203;-58
2023/03/28 02:44:19;;;;;;;3.80;1.50;;;;;;;;;;4974386;28;20242;-58
2023/03/28 02:47:19;;;;;;;4.13;1.40;;;;;;;;;;4974447;28;20213;-58
2023/03/28 02:49:46;;;;;;;2.67;1.60;;;;;;;;;;4942812;28;20214;-58
2023/03/28 02:52:54;;;;;;;2.40;1.70;;;;;;;;;;4974477;28;20230;-58
2023/03/28 02:55:43;;;;;;;1.90;1.70;;;;;;;;;;4974465;28;20211;-58
2023/03/28 02:58:36;;;;;;;4.70;1.90;;;;;;;;;;4973924;28;20207;-58
2023/03/28 03:01:07;;;;;;;5.23;1.90;;;;;;;;;;4958514;28;20571;-59
2023/03/28 03:03:36;;;;;;;6.10;2.33;;;;;;;;;;4974267;28;20289;-58
2023/03/28 03:06:05;;;;;;;4.13;2.10;;;;;;;;;;4958100;28;20191;-59
2023/03/28 03:08:32;;;;;;;3.33;1.70;;;;;;;;;;4974156;28;20211;-58
2023/03/28 03:11:00;;;;;;;4.63;1.87;;;;;;;;;;4973979;28;20203;-59
2023/03/28 03:13:27;;;;;;;6.97;2.00;;;;;;;;;;4973697;28;20695;-59
2023/03/28 03:15:54;;;;;;;3.07;1.87;;;;;;;;;;4957544;28;20600;-59
2023/03/28 03:18:23;;;;;;;5.43;2.00;;;;;;;;;;5009855;28;20605;-59
2023/03/28 03:20:51;;;;;;;4.20;2.10;;;;;;;;;;5017255;28;20208;-58
2023/03/28 03:23:19;;;;;;;4.80;2.00;;;;;;;;;;5049711;28;20205;-59
2023/03/28 03:25:49;;;;;;;2.77;1.77;;;;;;;;;;5033454;28;20255;-58
2023/03/28 03:28:30;;;;;;;2.87;1.70;;;;;;;;;;5049796;28;20232;-58
2023/03/28 03:31:00;;;;;;;4.30;2.00;;;;;;;;;;5034616;28;20204;-59
2023/03/28 03:33:33;;;;;;;3.80;1.80;;;;;;;;;;5031578;28;20197;-58
2023/03/28 03:36:05;;;;;;;3.23;1.80;;;;;;;;;;5015727;28;20266;-59
2023/03/28 03:38:33;;;;;;;3.30;1.60;;;;;;;;;;5013681;28;20250;-57
2023/03/28 03:41:01;;;;;;;4.87;2.47;;;;;;;;;;5031401;28;20205;-56
2023/03/28 03:43:29;;;;;;;2.90;2.00;;;;;;;;;;5014337;28;20203;-58
2023/03/28 03:45:58;;;;;;;3.60;2.00;;;;;;;;;;5014114;28;20243;-58
2023/03/28 03:48:27;;;;;;;3.90;1.93;;;;;;;;;;5014951;28;20243;-57
2023/03/28 03:50:59;;;;;;;2.83;1.80;;;;;;;;;;5013446;28;20207;-58
2023/03/28 03:53:27;;;;;;;3.67;1.50;;;;;;;;;;5031897;28;20201;-58
2023/03/28 03:56:16;;;;;;;4.57;1.90;;;;;;;;;;5012493;28;20205;-58
2023/03/28 03:58:52;;;;;;;4.67;2.10;;;;;;;;;;5028593;28;20728;-58
2023/03/28 04:01:24;;;;;;;3.50;1.90;;;;;;;;;;5032021;28;20650;-58
2023/03/28 04:03:53;;;;;;;2.77;1.50;;;;;;;;;;5012487;28;20205;-59
2023/03/28 04:06:28;;;;;;;5.43;1.87;;;;;;;;;;5013105;28;20221;-58
2023/03/28 04:08:55;;;;;;;3.10;1.80;;;;;;;;;;5014599;28;20196;-57
2023/03/28 04:11:41;;;;;;;3.63;1.80;;;;;;;;;;5013891;28;20233;-59
2023/03/28 04:14:08;;;;;;;4.90;1.80;;;;;;;;;;5032460;28;20651;-58
2023/03/28 04:16:36;;;;;;;3.03;1.60;;;;;;;;;;5020254;28;20241;-57
2023/03/28 04:19:09;;;;;;;5.27;1.90;;;;;;;;;;5024222;28;20229;-58
2023/03/28 04:21:41;;;;;;;3.53;1.87;;;;;;;;;;5014425;28;20747;-59
2023/03/28 04:24:14;;;;;;;5.17;2.00;;;;;;;;;;5045357;28;20614;-58
2023/03/28 04:26:49;;;;;;;6.83;1.80;;;;;;;;;;5031374;28;20220;-57
2023/03/28 04:29:23;;;;;;;2.93;1.87;;;;;;;;;;5047743;28;20705;-56
2023/03/28 04:32:11;;;;;;;4.57;1.80;;;;;;;;;;5031250;28;20612;-55
2023/03/28 04:34:59;;;;;;;4.63;2.33;;;;;;;;;;5032266;28;20576;-57
2023/03/28 04:37:27;;;;;;;4.10;1.90;;;;;;;;;;5048019;28;20232;-57
2023/03/28 04:40:03;;;;;;;3.63;2.03;;;;;;;;;;5030636;28;20217;-56
2023/03/28 04:42:41;;;;;;;4.43;2.50;;;;;;;;;;5014536;28;20605;-55
2023/03/28 04:45:14;;;;;;;5.17;2.47;;;;;;;;;;5031706;28;20233;-58
2023/03/28 04:47:46;;;;;;;2.93;2.20;;;;;;;;;;5032907;28;20220;-56
2023/03/28 04:50:19;;;;;;;4.30;2.07;;;;;;;;;;5031204;28;20221;-57
2023/03/28 04:52:47;;;;;;;4.97;2.00;;;;;;;;;;5031736;28;20228;-55
2023/03/28 04:55:15;;;;;;;3.73;2.23;;;;;;;;;;5029648;28;20239;-58
2023/03/28 04:57:45;;;;;;;5.27;2.00;;;;;;;;;;5031074;28;20236;-58
2023/03/28 05:00:15;;;;;;;5.93;2.60;;;;;;;;;;5030997;28;20564;-57
2023/03/28 05:02:58;;;;;;;5.00;2.60;;;;;;;;;;5032561;28;20586;-55
2023/03/28 05:05:28;;;;;;;5.13;2.43;;;;;;;;;;5031127;28;20239;-56
2023/03/28 05:07:57;;;;;;;4.60;1.70;;;;;;;;;;5015017;28;20217;-55
2023/03/28 05:10:24;;;;;;;6.63;2.33;;;;;;;;;;5014054;28;20247;-56
2023/03/28 05:12:57;;;;;;;4.60;2.13;;;;;;;;;;5031033;28;20240;-55
2023/03/28 05:15:26;;;;;;;5.67;2.57;;;;;;;;;;5014685;28;20721;-58
2023/03/28 05:18:04;;;;;;;4.83;2.80;;;;;;;;;;5030440;28;20628;-56
2023/03/28 05:20:35;;;;;;;3.17;2.53;;;;;;;;;;5014863;28;20311;-53
2023/03/28 05:23:05;;;;;;;5.20;2.10;;;;;;;;;;5013637;28;20221;-55
2023/03/28 05:25:35;;;;;;;2.83;2.20;;;;;;;;;;5013432;28;20298;-57
2023/03/28 05:28:03;;;;;;;6.30;2.60;;;;;;;;;;5029643;28;20221;-55
2023/03/28 05:30:32;;;;;;;4.93;2.33;;;;;;;;;;5031006;28;20701;-55
2023/03/28 05:33:00;;;;;;;3.73;2.40;;;;;;;;;;5015380;28;20208;-54
2023/03/28 05:35:28;;;;;;;7.70;2.90;;;;;;;;;;5015249;28;20673;-54
2023/03/28 05:37:56;;;;;;;4.87;2.53;;;;;;;;;;5015477;28;20224;-55
2023/03/28 05:40:23;;;;;;;5.53;2.70;;;;;;;;;;5032932;28;20605;-56
2023/03/28 05:42:51;;;;;;;5.73;2.93;;;;;;;;;;5032917;28;20227;-56
2023/03/28 05:45:20;;;;;;;7.37;2.90;;;;;;;;;;5016594;28;20311;-55
2023/03/28 05:48:22;;;;;;;4.47;2.40;;;;;;;;;;4975492;28;20202;-53
2023/03/28 05:50:49;;;;;;;8.30;3.13;;;;;;;;;;4975547;28;20206;-55
2023/03/28 05:53:17;;;;;;;6.17;2.70;;;;;;;;;;4975493;28;20203;-56
2023/03/28 05:55:44;;;;;;;5.43;2.43;;;;;;;;;;4959331;28;20256;-55
2023/03/28 05:58:12;;;;;;;4.57;2.60;;;;;;;;;;4959340;28;20210;-53
2023/03/28 06:00:41;;;;;;;4.17;2.30;;;;;;;;;;4975243;28;20209;-56
2023/03/28 06:03:10;;;;;;;5.83;2.23;;;;;;;;;;4975222;28;20562;-57
2023/03/28 06:05:44;;;;;;;4.07;2.27;;;;;;;;;;4975139;28;20226;-53
2023/03/28 06:08:23;;;;;;;5.50;2.37;;;;;;;;;;4959108;28;20202;-56
2023/03/28 06:10:50;;;;;;;5.87;2.67;;;;;;;;;;4975075;28;20209;-56
2023/03/28 06:13:23;;;;;;;4.60;2.70;;;;;;;;;;4975334;28;20198;-55
2023/03/28 06:15:50;;;;;;;6.23;2.57;;;;;;;;;;4958767;28;20227;-53
2023/03/28 06:18:26;;;;;;;5.37;3.10;;;;;;;;;;4959028;28;20695;-54
2023/03/28 06:20:53;;;;;;;4.83;2.50;;;;;;;;;;4958900;28;20241;-57
2023/03/28 06:23:22;;;;;;;5.97;2.50;;;;;;;;;;5011532;28;20211;-53
2023/03/28 06:25:50;;;;;;;5.53;2.70;;;;;;;;;;5034421;28;20224;-57
2023/03/28 06:28:19;;;;;;;4.97;2.70;;;;;;;;;;5018421;28;20230;-56
2023/03/28 06:31:12;;;;;;;6.63;2.80;;;;;;;;;;5018348;28;20195;-55
2023/03/28 06:33:41;;;;;;;7.17;2.70;;;;;;;;;;5050729;28;20208;-55
2023/03/28 06:36:10;;;;;;;5.17;2.37;;;;;;;;;;5018154;28;20292;-55
2023/03/28 06:38:37;;;;;;;6.37;2.57;;;;;;;;;;5018110;28;20208;-56
2023/03/28 06:41:05;;;;;;;4.07;2.43;;;;;;;;;;5017977;28;20204;-56
2023/03/28 06:43:34;;;;;;;4.20;2.47;;;;;;;;;;5050760;28;20680;-55
2023/03/28 06:46:07;;;;;;;6.77;2.53;;;;;;;;;;5017628;28;20670;-55
2023/03/28 06:48:38;;;;;;;5.30;2.63;;;;;;;;;;5017998;28;20209;-56
2023/03/28 06:51:29;;;;;;;6.40;2.83;;;;;;;;;;5015934;28;20205;-56
2023/03/28 06:53:56;;;;;;;2.87;1.97;;;;;;;;;;5050725;28;20201;-57
2023/03/28 06:56:28;;;;;;;3.97;2.20;;;;;;;;;;5016310;28;20715;-55
2023/03/28 06:58:57;;;;;;;4.77;2.37;;;;;;;;;;5034162;28;20343;-56
2023/03/28 07:01:26;;;;;;;5.67;2.40;;;;;;;;;;5017640;28;20290;-56
2023/03/28 07:04:03;;;;;;;4.63;2.17;;;;;;;;;;5017723;28;20204;-57
2023/03/28 07:06:33;;;;;;;4.00;2.57;;;;;;;;;;5017090;28;20220;-55
2023/03/28 07:09:00;;;;;;;3.63;2.27;;;;;;;;;;5033769;28;20211;-56
2023/03/28 07:11:39;;;;;;;5.60;2.50;;;;;;;;;;5017251;28;20704;-56
2023/03/28 07:14:06;;;;;;;4.40;2.50;;;;;;;;;;5017514;28;20205;-56
2023/03/28 07:16:34;;;;;;;5.27;2.70;;;;;;;;;;5017206;28;20646;-56
2023/03/28 07:19:02;;;;;;;5.23;2.40;;;;;;;;;;5016990;28;20215;-54
2023/03/28 07:21:32;;;;;;;5.10;2.60;;;;;;;;;;5017044;28;20243;-55
2023/03/28 07:24:02;;;;;;;4.20;2.47;;;;;;;;;;5016923;28;20284;-56
2023/03/28 07:26:44;;;;;;;4.57;2.30;;;;;;;;;;5050312;28;20212;-56
2023/03/28 07:29:11;;;;;;;7.27;2.80;;;;;;;;;;5033341;28;20207;-53
2023/03/28 07:31:38;;;;;;;6.60;2.80;;;;;;;;;;5033366;28;20661;-55
2023/03/28 07:34:06;;;;;;;5.03;2.70;;;;;;;;;;5017061;28;20205;-54
2023/03/28 07:36:33;;;;;;;5.30;2.40;;;;;;;;;;5016747;28;20207;-57
2023/03/28 07:39:10;;;;;;;5.40;2.13;;;;;;;;;;5016972;28;20554;-56
2023/03/28 07:41:38;;;;;;;4.03;2.40;;;;;;;;;;5016816;28;20394;-57
2023/03/28 07:44:06;;;;;;;4.23;2.63;;;;;;;;;;5016812;28;20212;-56
2023/03/28 07:46:36;;;;;;;4.83;2.83;;;;;;;;;;5016551;28;20260;-57
2023/03/28 07:49:04;;;;;;;4.83;2.60;;;;;;;;;;5016591;28;20211;-55
2023/03/28 07:51:31;;;;;;;5.20;2.47;;;;;;;;;;5016637;28;20200;-56
2023/03/28 07:53:58;;;;;;;5.13;2.20;;;;;;;;;;5032863;28;20270;-56
2023/03/28 07:56:26;;;;;;;4.03;2.40;;;;;;;;;;5016472;28;20296;-56
2023/03/28 07:59:14;;;;;;;7.43;2.20;;;;;;;;;;5033159;28;20200;-55
2023/03/28 08:01:44;;;;;;;6.10;2.30;;;;;;;;;;5016352;28;20205;-56
2023/03/28 08:04:13;;;;;;;4.33;2.20;;;;;;;;;;5049558;28;20204;-58
2023/03/28 08:06:59;;;;;;;3.80;2.40;;;;;;;;;;5032792;28;20246;-57
2023/03/28 08:09:26;;;;;;;4.07;2.20;;;;;;;;;;5033800;28;20197;-57
2023/03/28 08:12:06;;;;;;;3.53;2.03;;;;;;;;;;5032918;28;20287;-56
2023/03/28 08:14:34;;;;;;;5.20;2.60;;;;;;;;;;5032721;28;20208;-55
2023/03/28 08:17:01;;;;;;;4.73;2.23;;;;;;;;;;5049425;28;20217;-56
2023/03/28 08:19:30;;;;;;;5.80;2.40;;;;;;;;;;5033654;28;20208;-57
2023/03/28 08:22:20;;;;;;;4.43;2.50;;;;;;;;;;5023572;28;20649;-56
2023/03/28 08:24:56;;;;;;;4.37;2.13;;;;;;;;;;5049176;28;20208;-56
2023/03/28 08:27:23;;;;;;;4.87;2.80;;;;;;;;;;5016123;28;20301;-57
2023/03/28 08:29:56;;;;;;;3.57;2.17;;;;;;;;;;5048999;28;20212;-54
2023/03/28 08:32:25;;;;;;;4.37;2.33;;;;;;;;;;5015912;28;20252;-57
2023/03/28 08:34:56;;;;;;;5.50;2.30;;;;;;;;;;5016392;28;20204;-56
2023/03/28 08:37:26;;;;;;;6.07;2.73;;;;;;;;;;5016080;28;20250;-57
2023/03/28 08:39:55;;;;;;;2.73;2.03;;;;;;;;;;5032153;28;20731;-58
2023/03/28 08:42:38;;;;;;;5.03;2.30;;;;;;;;;;5015715;28;20259;-55
2023/03/28 08:45:43;;;;;;;3.50;2.00;;;;;;;;;;5032441;28;20193;-56
2023/03/28 08:48:13;;;;;;;3.87;2.20;;;;;;;;;;5003422;28;20208;-56
2023/03/28 08:50:43;;;;;;;4.67;2.47;;;;;;;;;;5032330;28;20296;-56
2023/03/28 08:53:25;;;;;;;2.50;1.50;;;;;;;;;;5032129;28;20250;-56
2023/03/28 08:55:53;;;;;;;5.23;2.03;;;;;;;;;;5031873;28;20208;-56
2023/03/28 08:58:22;;;;;;;4.93;2.27;;;;;;;;;;4999413;28;20654;-57
2023/03/28 09:00:51;;;;;;;5.60;2.97;;;;;;;;;;5015674;28;20666;-57
2023/03/28 09:03:20;;;;;;;4.30;2.80;;;;;;;;;;5033452;28;20223;-57
2023/03/28 09:06:28;;;;;;;4.00;2.43;;;;;;;;;;4999927;28;20240;-56
2023/03/28 09:09:33;;;;;;;4.73;2.57;;;;;;;;;;4953076;29;20294;-56
2023/03/28 09:12:56;;;;;;;3.07;2.07;;;;;;;;;;4953215;29;20266;-57
2023/03/28 09:15:44;;;;;;;4.33;2.33;;;;;;;;;;4944512;29;20237;-56
2023/03/28 09:18:41;;;;;;;4.97;2.43;;;;;;;;;;4937194;29;20222;-58
2023/03/28 09:21:21;;;;;;;3.67;2.40;;;;;;;;;;4936814;29;20686;-58
2023/03/28 09:24:07;;;;;;;3.30;2.00;;;;;;;;;;4956824;29;20207;-57
2023/03/28 09:26:42;;;;;;;3.67;2.20;;;;;;;;;;4956647;29;20227;-56
2023/03/28 09:29:19;;;;;;;6.70;2.60;;;;;;;;;;4941038;29;20207;-55
2023/03/28 09:31:49;;;;;;;5.73;1.90;;;;;;;;;;4956569;29;20205;-54
2023/03/28 09:34:26;;;;;;;6.13;2.77;;;;;;;;;;4940890;29;20200;-56
2023/03/28 09:37:27;;;;;;;4.60;2.50;;;;;;;;;;4956559;29;20218;-56
2023/03/28 09:39:59;;;;;;;3.47;1.97;;;;;;;;;;4940500;29;20216;-55
2023/03/28 09:42:46;;;;;;;5.60;2.30;;;;;;;;;;4956544;29;20204;-55
2023/03/28 09:45:52;;;;;;;3.00;2.00;;;;;;;;;;4997929;28;20232;-56
2023/03/28 09:48:58;;;;;;;6.07;2.67;;;;;;;;;;4964780;28;20290;-56
2023/03/28 09:51:30;;;;;;;4.23;2.40;;;;;;;;;;4975521;28;20202;-55
2023/03/28 09:53:57;;;;;;;4.10;2.63;;;;;;;;;;4990023;28;20197;-56
2023/03/28 09:56:31;;;;;;;4.47;2.20;;;;;;;;;;5018964;28;20323;-57
2023/03/28 09:59:30;;;;;;;5.47;2.90;;;;;;;;;;5033613;28;20272;-56
2023/03/28 10:02:04;;;;;;;3.30;2.03;;;;;;;;;;5035099;28;20208;-54
2023/03/28 10:04:37;;;;;;;5.23;2.60;;;;;;;;;;5018872;28;20197;-55
2023/03/28 10:07:42;;;;;;;7.80;4.00;;;;;;;;;;5034914;28;20228;-56
2023/03/28 10:10:32;;;;;;;4.50;2.67;;;;;;;;;;5033124;28;20283;-57
2023/03/28 10:13:04;;;;;;;4.77;2.23;;;;;;;;;;5051424;28;20208;-57
2023/03/28 10:15:45;;;;;;;7.27;3.00;;;;;;;;;;5018467;28;20221;-55
2023/03/28 10:18:29;;;;;;;4.40;2.43;;;;;;;;;;5036153;28;20209;-57
2023/03/28 10:21:17;;;;;;;4.87;2.80;;;;;;;;;;5036289;28;20200;-56
2023/03/28 10:24:03;;;;;;;4.30;2.57;;;;;;;;;;5019355;28;20263;-57
2023/03/28 10:26:31;;;;;;;7.73;3.23;;;;;;;;;;5018359;28;20228;-57
2023/03/28 10:29:04;;;;;;;5.10;2.77;;;;;;;;;;5034333;28;20192;-56
2023/03/28 10:31:32;;;;;;;4.13;2.40;;;;;;;;;;5018576;28;20204;-57
2023/03/28 10:34:29;;;;;;;6.37;3.10;;;;;;;;;;5034649;28;20208;-57
2023/03/28 10:37:28;;;;;;;9.27;3.57;;;;;;;;;;5021534;28;20691;-57
2023/03/28 10:40:17;;;;;;;5.10;2.83;;;;;;;;;;5035490;28;20209;-57
2023/03/28 10:43:13;;;;;;;4.87;2.00;;;;;;;;;;5035707;28;20212;-58
2023/03/28 10:46:17;;;;;;;5.47;3.10;;;;;;;;;;4954955;29;20227;-57
2023/03/28 10:49:15;;;;;;;5.03;2.70;;;;;;;;;;4951467;29;20298;-57
2023/03/28 10:51:49;;;;;;;7.33;2.07;;;;;;;;;;4940445;29;20207;-55
2023/03/28 10:54:22;;;;;;;9.17;3.60;;;;;;;;;;4954998;29;20219;-57
2023/03/28 10:56:54;;;;;;;5.37;2.40;;;;;;;;;;4939230;29;20215;-56
2023/03/28 10:59:46;;;;;;;5.90;2.60;;;;;;;;;;4939859;29;20213;-58
2023/03/28 11:02:33;;;;;;;6.57;2.70;;;;;;;;;;4954520;29;20207;-57
2023/03/28 11:05:13;;;;;;;7.50;3.33;;;;;;;;;;4967161;28;20219;-57
2023/03/28 11:08:08;;;;;;;6.57;3.37;;;;;;;;;;4954142;28;20235;-57
2023/03/28 11:11:05;;;;;;;7.57;3.10;;;;;;;;;;4939749;29;20791;-57
2023/03/28 11:14:09;;;;;;;8.50;4.20;;;;;;;;;;4953879;28;20226;-56
2023/03/28 11:16:51;;;;;;;6.50;3.17;;;;;;;;;;4937211;29;20701;-57
2023/03/28 11:19:58;;;;;;;6.20;3.40;;;;;;;;;;4937118;29;20223;-57
2023/03/28 11:23:01;;;;;;;5.00;2.77;;;;;;;;;;4938496;28;20271;-57
2023/03/28 11:25:50;;;;;;;5.50;3.43;;;;;;;;;;5012687;28;20229;-58
2023/03/28 11:29:13;;;;;;;10.70;5.30;;;;;;;;;;5014501;28;20279;-57
2023/03/28 11:31:47;;;;;;;5.80;2.97;;;;;;;;;;5012555;28;20232;-57
2023/03/28 11:34:23;;;;;;;5.20;3.37;;;;;;;;;;5012672;28;20249;-56
2023/03/28 11:37:04;;;;;;;4.93;3.27;;;;;;;;;;5012860;28;20233;-57
2023/03/28 11:40:06;;;;;;;8.43;3.90;;;;;;;;;;4996805;28;20578;-58
2023/03/28 11:42:56;;;;;;;5.07;3.20;;;;;;;;;;5012267;28;20228;-57
2023/03/28 11:45:28;;;;;;;9.23;3.90;;;;;;;;;;4998545;28;20303;-58
2023/03/28 11:48:40;;;;;;;9.30;5.20;;;;;;;;;;5013235;28;20582;-57
2023/03/28 11:51:19;;;;;;;5.90;3.13;;;;;;;;;;5022294;28;20216;-58
2023/03/28 11:53:58;;;;;;;5.07;3.07;;;;;;;;;;4991432;28;20235;-57
2023/03/28 11:56:34;;;;;;;7.03;3.67;;;;;;;;;;4991357;28;20193;-57
2023/03/28 11:59:47;;;;;;;6.47;3.47;;;;;;;;;;5010289;28;20232;-58
2023/03/28 12:02:17;;;;;;;7.10;3.70;;;;;;;;;;5029834;28;20569;-58
2023/03/28 12:04:51;;;;;;;9.07;5.00;;;;;;;;;;5008329;28;20276;-59
2023/03/28 12:07:23;;;;;;;11.00;5.40;;;;;;;;;;5027860;28;20253;-58
2023/03/28 12:10:09;;;;;;;8.70;5.03;;;;;;;;;;5024401;28;20788;-57
2023/03/28 12:13:02;;;;;;;11.53;6.20;;;;;;;;;;5029947;28;20200;-57
2023/03/28 12:15:56;;;;;;;9.60;5.67;;;;;;;;;;4965152;28;20292;-58
2023/03/28 12:18:35;;;;;;;7.67;5.13;;;;;;;;;;4982570;28;20213;-56
2023/03/28 12:21:09;;;;;;;8.90;4.60;;;;;;;;;;4967809;28;20202;-58
2023/03/28 12:24:10;;;;;;;9.43;5.97;;;;;;;;;;4963143;28;20195;-56
2023/03/28 12:27:05;;;;;;;18.60;9.27;;;;;;;;;;4952412;28;20226;-55
2023/03/28 12:29:44;;;;;;;14.83;8.30;;;;;;;;;;4954027;28;20640;-51
2023/03/28 12:32:31;;;;;;;20.57;10.60;;;;;;;;;;4955105;28;20699;-51
2023/03/28 12:35:14;;;;;;;15.47;9.97;;;;;;;;;;4954576;28;20233;-54
2023/03/28 12:38:28;;;;;;;12.50;7.63;;;;;;;;;;4940588;28;20206;-56
2023/03/28 12:41:23;;;;;;;13.67;7.43;;;;;;;;;;4965678;28;20285;-55
2023/03/28 12:43:57;;;;;;;11.80;7.80;;;;;;;;;;4979859;28;20234;-54
2023/03/28 12:47:00;;;;;;;14.93;9.40;;;;;;;;;;4966534;28;20237;-53
2023/03/28 12:49:55;;;;;;;17.23;9.17;;;;;;;;;;4964363;28;20237;-54
2023/03/28 12:52:31;;;;;;;17.13;9.13;;;;;;;;;;5001036;28;20244;-52
2023/03/28 12:55:06;;;;;;;12.57;7.27;;;;;;;;;;5011362;28;20423;-54
2023/03/28 12:57:45;;;;;;;16.83;9.57;;;;;;;;;;4997702;28;20240;-53
2023/03/28 13:00:50;;;;;;;11.03;5.97;;;;;;;;;;5001664;28;20224;-57
2023/03/28 13:03:50;;;;;;;5.73;3.37;;;;;;;;;;5015377;28;20228;-56
2023/03/28 13:06:43;;;;;;;7.80;4.83;;;;;;;;;;5014540;28;20233;-53
2023/03/28 13:10:00;;;;;;;6.00;4.17;;;;;;;;;;5013671;28;20263;-55
2023/03/28 13:12:48;;;;;;;8.30;4.07;;;;;;;;;;4952944;29;20278;-55
2023/03/28 13:15:16;;;;;;;7.20;4.00;;;;;;;;;;5012996;28;20248;-55
2023/03/28 13:17:48;;;;;;;8.37;4.60;;;;;;;;;;5015652;28;20586;-56
2023/03/28 13:20:15;;;;;;;11.53;4.10;;;;;;;;;;5013754;28;20727;-57
2023/03/28 13:22:52;;;;;;;7.13;3.70;;;;;;;;;;5014203;28;20233;-55
2023/03/28 13:25:31;;;;;;;6.43;3.83;;;;;;;;;;5014656;28;20209;-55
2023/03/28 13:28:11;;;;;;;7.53;3.93;;;;;;;;;;5014236;28;20247;-55
2023/03/28 13:30:43;;;;;;;9.00;4.77;;;;;;;;;;5014804;28;20299;-54
2023/03/28 13:33:24;;;;;;;7.60;4.50;;;;;;;;;;5030129;28;20221;-56
2023/03/28 13:35:58;;;;;;;8.83;5.57;;;;;;;;;;5012972;28;20224;-55
2023/03/28 13:38:28;;;;;;;10.53;5.87;;;;;;;;;;4996194;28;20226;-56
2023/03/28 13:40:58;;;;;;;8.57;5.50;;;;;;;;;;5014172;28;20222;-57
2023/03/28 13:43:45;;;;;;;12.03;7.00;;;;;;;;;;5014730;28;20229;-55
2023/03/28 13:46:15;;;;;;;12.93;6.17;;;;;;;;;;5013212;28;20229;-55
2023/03/28 13:48:52;;;;;;;12.67;8.50;;;;;;;;;;5015786;28;20734;-55
2023/03/28 13:51:25;;;;;;;7.80;5.50;;;;;;;;;;5015446;28;20316;-55
2023/03/28 13:53:52;;;;;;;14.70;10.67;;;;;;;;;;5041561;28;20232;-55
2023/03/28 13:56:21;;;;;;;18.23;12.50;;;;;;;;;;5014105;28;20232;-56
2023/03/28 13:58:50;;;;;;;16.83;10.80;;;;;;;;;;5012541;28;20252;-59
2023/03/28 14:01:23;;;;;;;24.00;16.17;;;;;;;;;;5012064;28;20312;-57
2023/03/28 14:03:53;;;;;;;26.77;16.67;;;;;;;;;;5012433;28;20229;-53
2023/03/28 14:06:25;;;;;;;28.73;18.67;;;;;;;;;;5011782;28;20667;-54
2023/03/28 14:08:57;;;;;;;41.00;22.77;;;;;;;;;;5009662;28;20223;-52
2023/03/28 14:11:31;;;;;;;61.23;36.07;;;;;;;;;;5013212;28;20233;-53
2023/03/28 14:14:03;;;;;;;54.40;25.50;;;;;;;;;;5013821;28;20239;-56
2023/03/28 14:16:35;;;;;;;61.57;26.20;;;;;;;;;;5027678;28;20279;-56
2023/03/28 14:19:04;;;;;;;68.43;29.53;;;;;;;;;;5013586;28;20221;-52
2023/03/28 14:21:32;;;;;;;91.43;32.13;;;;;;;;;;5013737;28;20221;-54
2023/03/28 14:24:06;;;;;;;77.90;37.93;;;;;;;;;;5013045;28;20723;-56
2023/03/28 14:26:35;;;;;;;71.13;36.17;;;;;;;;;;5012717;28;20244;-56
2023/03/28 14:29:10;;;;;;;56.00;36.37;;;;;;;;;;5029912;28;20226;-55
2023/03/28 14:31:40;;;;;;;49.30;31.23;;;;;;;;;;5012031;28;20681;-56
2023/03/28 14:34:24;;;;;;;51.93;29.23;;;;;;;;;;5013934;28;20312;-57
2023/03/28 14:36:57;;;;;;;43.73;28.07;;;;;;;;;;5013232;28;20186;-56
2023/03/28 14:39:26;;;;;;;36.60;23.13;;;;;;;;;;5012329;28;20189;-56
2023/03/28 14:41:54;;;;;;;35.10;24.57;;;;;;;;;;5013756;28;20268;-54
2023/03/28 14:44:22;;;;;;;31.47;21.33;;;;;;;;;;5013774;28;20670;-55
2023/03/28 14:46:49;;;;;;;33.40;20.57;;;;;;;;;;5012774;28;20202;-54
2023/03/28 14:49:22;;;;;;;24.50;16.37;;;;;;;;;;5028335;28;20205;-55
2023/03/28 14:51:57;;;;;;;26.77;17.33;;;;;;;;;;5012837;28;20265;-52
2023/03/28 14:54:28;;;;;;;26.17;15.90;;;;;;;;;;5012117;28;20197;-55
2023/03/28 14:56:56;;;;;;;25.33;17.10;;;;;;;;;;5013917;28;20190;-55
2023/03/28 14:59:31;;;;;;;22.23;16.30;;;;;;;;;;5013838;28;20286;-53
2023/03/28 15:01:59;;;;;;;24.93;15.00;;;;;;;;;;5012770;28;20203;-52
2023/03/28 15:04:27;;;;;;;20.50;14.97;;;;;;;;;;5009486;28;20189;-54
2023/03/28 15:06:56;;;;;;;22.00;15.20;;;;;;;;;;5012246;28;20255;-55
2023/03/28 15:09:33;;;;;;;20.43;14.73;;;;;;;;;;5013105;28;20205;-53
2023/03/28 15:12:04;;;;;;;19.03;12.80;;;;;;;;;;5013345;28;20189;-56
2023/03/28 15:14:43;;;;;;;17.53;12.43;;;;;;;;;;5042912;28;20190;-55
2023/03/28 15:17:20;;;;;;;17.90;12.23;;;;;;;;;;5042881;28;20193;-51
2023/03/28 15:19:52;;;;;;;19.70;11.10;;;;;;;;;;5013385;28;20194;-55
2023/03/28 15:22:22;;;;;;;16.17;10.13;;;;;;;;;;5012059;28;20647;-52
2023/03/28 15:24:50;;;;;;;12.07;8.90;;;;;;;;;;5011658;28;20189;-53
2023/03/28 15:27:30;;;;;;;14.87;9.10;;;;;;;;;;5013000;28;20237;-53
2023/03/28 15:30:03;;;;;;;13.40;8.37;;;;;;;;;;5011820;28;20228;-55
2023/03/28 15:32:31;;;;;;;12.80;8.90;;;;;;;;;;5011919;28;20214;-56
2023/03/28 15:35:00;;;;;;;10.20;7.50;;;;;;;;;;5011490;28;20708;-55
2023/03/28 15:37:27;;;;;;;11.73;7.50;;;;;;;;;;5012998;28;20602;-53